Time;durP1;ratioP1;P1;durP2;ratioP2;P2;SDS_P1;SDS_P2;PMS_P1;PMS_P2;Temp;Humidity;BMP_temperature;BMP_pressure;BME280_temperature;BME280_humidity;BME280_pressure;Samples;Min_cycle;Max_cycle;Signal;HPM_P1;HPM_P2
2022/12/27 08:44:44;;;;;;;5.07;3.13;;;3.90;99.90;;;;;;5138261;27;20263;-83
2022/12/27 08:50:06;;;;;;;4.20;2.90;;;4.10;99.90;;;;;;5137492;27;20631;-82
2022/12/27 08:57:10;;;;;;;3.93;2.50;;;4.40;99.90;;;;;;5149980;27;20272;-83
2022/12/27 08:59:35;;;;;;;5.20;3.00;;;4.40;99.90;;;;;;5115996;28;20524;-83
2022/12/27 09:02:01;;;;;;;5.70;2.47;;;4.40;99.90;;;;;;5117918;28;20179;-83
2022/12/27 09:04:27;;;;;;;2.80;2.10;;;4.60;99.90;;;;;;5116704;28;20187;-83
2022/12/27 09:06:52;;;;;;;4.27;2.20;;;4.70;99.90;;;;;;5116901;28;20687;-82
2022/12/27 09:09:18;;;;;;;3.23;2.23;;;4.70;99.90;;;;;;5115720;28;20202;-82
2022/12/27 09:11:44;;;;;;;3.40;2.60;;;4.60;99.90;;;;;;5115854;28;20264;-82
2022/12/27 09:14:09;;;;;;;5.80;3.40;;;4.60;99.90;;;;;;5116750;28;20175;-81
2022/12/27 09:16:35;;;;;;;4.03;3.00;;;4.90;99.90;;;;;;5116222;28;20249;-82
2022/12/27 09:19:02;;;;;;;5.70;2.73;;;5.20;99.90;;;;;;5117609;28;20238;-83
2022/12/27 09:21:30;;;;;;;6.17;2.60;;;5.30;99.90;;;;;;5114626;28;20171;-83
2022/12/27 09:23:56;;;;;;;3.10;2.40;;;5.70;99.90;;;;;;5115681;28;20207;-81
2022/12/27 09:26:25;;;;;;;2.70;2.30;;;6.60;99.90;;;;;;5115496;28;20187;-83
2022/12/27 09:28:52;;;;;;;4.43;2.40;;;7.40;99.90;;;;;;5114836;28;20772;-82
2022/12/27 09:31:20;;;;;;;2.90;2.17;;;7.70;99.90;;;;;;5115815;28;20176;-82
2022/12/27 09:33:46;;;;;;;4.03;2.43;;;8.10;99.90;;;;;;5115833;28;20195;-84
2022/12/27 09:36:14;;;;;;;3.53;2.73;;;8.80;99.90;;;;;;5114694;28;20663;-83
2022/12/27 09:38:41;;;;;;;4.47;1.90;;;8.90;99.90;;;;;;5114238;28;20673;-83
2022/12/27 09:41:12;;;;;;;4.07;1.97;;;9.00;99.90;;;;;;5117105;28;20625;-84
2022/12/27 09:43:49;;;;;;;2.40;1.37;;;8.70;99.90;;;;;;5120111;28;20251;-85
2022/12/27 09:46:40;;;;;;;3.47;1.30;;;8.10;99.90;;;;;;5118908;28;20177;-84
2022/12/27 09:49:12;;;;;;;2.50;1.33;;;7.60;99.90;;;;;;5118851;28;20250;-84
2022/12/27 09:52:03;;;;;;;2.70;1.63;;;7.40;99.90;;;;;;5115641;28;20175;-81
2022/12/27 09:54:57;;;;;;;3.47;1.73;;;7.30;99.90;;;;;;5111630;28;20175;-81
2022/12/27 09:57:27;;;;;;;3.53;1.97;;;7.40;99.90;;;;;;5110234;28;20248;-82
2022/12/27 09:59:58;;;;;;;3.33;2.20;;;8.10;99.90;;;;;;5112176;28;20175;-81
2022/12/27 10:02:26;;;;;;;3.83;2.20;;;8.40;99.90;;;;;;5111153;28;20571;-82
2022/12/27 10:04:53;;;;;;;5.80;1.90;;;8.80;99.90;;;;;;5111615;28;20176;-82
2022/12/27 10:07:48;;;;;;;5.47;2.40;;;8.60;99.90;;;;;;5103277;28;20207;-82
2022/12/27 10:10:40;;;;;;;2.70;2.00;;;8.10;99.90;;;;;;5097943;28;20215;-81
2022/12/27 10:13:18;;;;;;;3.07;1.60;;;7.60;99.90;;;;;;5097810;28;20221;-82
2022/12/27 10:15:55;;;;;;;2.03;1.10;;;7.60;99.90;;;;;;5096582;28;20211;-81
2022/12/27 10:18:49;;;;;;;1.33;1.07;;;7.70;99.90;;;;;;5097477;28;20253;-82
2022/12/27 10:21:24;;;;;;;4.87;1.53;;;8.30;99.90;;;;;;5096322;28;20220;-83
2022/12/27 10:24:16;;;;;;;2.63;0.90;;;8.00;99.90;;;;;;5097272;28;20642;-82
2022/12/27 10:26:42;;;;;;;4.73;1.37;;;7.50;99.90;;;;;;5095702;28;20649;-81
2022/12/27 10:29:22;;;;;;;1.40;1.10;;;7.30;99.90;;;;;;5097836;28;20195;-82
2022/12/27 10:31:48;;;;;;;1.47;1.10;;;7.50;99.90;;;;;;5096097;28;20209;-81
2022/12/27 10:34:16;;;;;;;2.30;1.10;;;7.70;99.90;;;;;;5096002;28;20180;-82
2022/12/27 10:36:44;;;;;;;1.27;0.87;;;7.50;99.90;;;;;;5098649;28;20214;-82
2022/12/27 10:39:26;;;;;;;3.00;2.33;;;7.30;99.90;;;;;;5097075;28;20588;-82
2022/12/27 10:42:10;;;;;;;3.17;1.20;;;7.00;99.90;;;;;;5094942;28;20187;-83
2022/12/27 10:44:36;;;;;;;1.53;1.10;;;7.10;99.90;;;;;;5099434;28;20576;-82
2022/12/27 10:47:02;;;;;;;1.93;1.10;;;7.00;99.90;;;;;;5099677;28;20231;-84
2022/12/27 10:49:33;;;;;;;2.60;1.50;;;6.90;99.90;;;;;;5101479;28;20587;-82
2022/12/27 10:52:20;;;;;;;5.53;2.10;;;7.20;99.90;;;;;;5101307;28;20179;-83
2022/12/27 10:54:56;;;;;;;2.97;0.90;;;7.20;99.90;;;;;;5100556;28;20186;-83
2022/12/27 10:57:32;;;;;;;1.83;1.07;;;7.00;99.90;;;;;;5102425;28;20172;-82
2022/12/27 11:00:18;;;;;;;2.80;1.30;;;7.40;99.90;;;;;;5100395;28;20170;-83
2022/12/27 11:02:52;;;;;;;2.40;1.27;;;7.80;99.90;;;;;;5101214;28;20198;-81
2022/12/27 11:05:26;;;;;;;1.60;1.20;;;7.50;99.90;;;;;;5101404;28;20175;-83
2022/12/27 11:07:52;;;;;;;2.07;1.10;;;7.20;99.90;;;;;;5099594;28;20199;-81
2022/12/27 11:10:21;;;;;;;16.10;7.67;;;6.90;99.90;;;;;;5101409;28;20759;-82
2022/12/27 11:12:54;;;;;;;11.97;6.30;;;6.90;99.90;;;;;;5097038;28;20179;-82
2022/12/27 11:15:20;;;;;;;4.63;1.83;;;7.70;99.90;;;;;;5097695;28;20552;-81
2022/12/27 11:17:50;;;;;;;12.40;7.23;;;9.00;99.90;;;;;;5097246;28;20269;-84
2022/12/27 11:20:37;;;;;;;3.67;2.63;;;8.80;99.90;;;;;;5096312;28;20206;-82
2022/12/27 11:23:04;;;;;;;8.07;2.20;;;7.90;99.90;;;;;;5095886;28;20172;-82
2022/12/27 11:25:32;;;;;;;2.73;1.00;;;7.80;99.90;;;;;;5098850;28;20169;-83
2022/12/27 11:28:37;;;;;;;4.80;1.70;;;7.60;99.90;;;;;;5099305;28;20536;-83
2022/12/27 11:31:32;;;;;;;4.33;1.80;;;7.40;99.90;;;;;;5096919;28;20270;-83
2022/12/27 11:34:02;;;;;;;2.97;1.67;;;7.60;99.90;;;;;;5100051;28;20259;-82
2022/12/27 11:36:31;;;;;;;4.13;1.90;;;7.60;99.90;;;;;;5097384;28;20213;-82
2022/12/27 11:38:59;;;;;;;2.17;1.30;;;7.60;99.90;;;;;;5099147;28;20195;-82
2022/12/27 11:41:43;;;;;;;1.40;0.97;;;8.20;99.90;;;;;;5095897;28;20222;-82
2022/12/27 11:44:14;;;;;;;1.60;0.87;;;8.60;99.90;;;;;;5096557;28;20179;-82
2022/12/27 11:47:05;;;;;;;1.37;1.27;;;7.70;99.90;;;;;;5097822;28;20176;-82
2022/12/27 11:49:36;;;;;;;1.90;1.17;;;7.20;99.90;;;;;;5098752;28;20322;-82
2022/12/27 11:52:27;;;;;;;2.40;1.00;;;7.00;99.90;;;;;;5098665;28;20262;-82
2022/12/27 11:55:40;;;;;;;1.87;1.03;;;6.90;99.90;;;;;;5097844;28;20655;-82
2022/12/27 11:58:12;;;;;;;4.70;1.17;;;6.70;99.90;;;;;;5079400;28;20204;-82
2022/12/27 12:01:12;;;;;;;2.17;1.30;;;6.50;99.90;;;;;;5099775;28;20180;-82
2022/12/27 12:03:38;;;;;;;3.87;1.10;;;6.50;99.90;;;;;;5099083;28;20176;-82
2022/12/27 12:06:28;;;;;;;2.03;1.00;;;6.40;99.90;;;;;;5101368;28;20176;-82
2022/12/27 12:08:59;;;;;;;3.33;1.27;;;6.50;99.90;;;;;;5101232;28;20200;-83
2022/12/27 12:11:59;;;;;;;3.23;1.90;;;6.60;99.90;;;;;;5100778;28;20544;-83
2022/12/27 12:14:49;;;;;;;5.40;2.60;;;6.50;99.90;;;;;;5102540;28;20218;-83
2022/12/27 12:17:23;;;;;;;5.80;2.60;;;6.60;99.90;;;;;;5104332;28;20191;-84
2022/12/27 12:20:24;;;;;;;17.43;12.17;;;6.80;99.90;;;;;;5112774;28;20172;-84
2022/12/27 12:23:26;;;;;;;4.70;2.63;;;6.80;99.90;;;;;;5105285;28;20191;-83
2022/12/27 12:26:16;;;;;;;3.47;2.43;;;6.60;99.90;;;;;;5099212;28;20213;-82
2022/12/27 12:29:04;;;;;;;3.97;1.30;;;6.40;99.90;;;;;;5100004;28;20288;-82
2022/12/27 12:31:54;;;;;;;4.03;1.90;;;6.40;99.90;;;;;;5102023;28;20239;-83
2022/12/27 12:34:19;;;;;;;3.47;1.40;;;6.40;99.90;;;;;;5098918;28;20166;-82
2022/12/27 12:37:13;;;;;;;4.10;2.53;;;6.30;99.90;;;;;;5100267;28;20207;-84
2022/12/27 12:40:25;;;;;;;5.03;3.03;;;6.30;99.90;;;;;;5098827;28;20188;-81
2022/12/27 12:42:51;;;;;;;4.37;2.60;;;;;;;;;;5079697;28;20610;-82
2022/12/27 12:45:49;;;;;;;3.43;1.57;;;6.40;99.90;;;;;;5096869;28;20179;-82
2022/12/27 12:48:36;;;;;;;2.07;1.40;;;6.40;99.90;;;;;;5093338;28;20676;-82
2022/12/27 12:51:43;;;;;;;4.10;2.70;;;6.40;99.90;;;;;;5098474;28;20171;-85
2022/12/27 12:54:30;;;;;;;1.73;1.40;;;6.50;99.90;;;;;;5089759;28;20243;-82
2022/12/27 12:57:23;;;;;;;1.77;1.63;;;;;;;;;;5100172;28;20208;-82
2022/12/27 13:00:07;;;;;;;2.97;1.03;;;6.70;99.90;;;;;;5098619;28;20250;-82
2022/12/27 13:02:46;;;;;;;6.37;1.40;;;6.80;99.90;;;;;;5099598;28;20170;-82
2022/12/27 13:05:45;;;;;;;3.10;1.57;;;6.90;99.90;;;;;;5099679;28;20188;-82
2022/12/27 13:08:38;;;;;;;3.10;1.50;;;6.60;99.90;;;;;;5099520;28;20202;-82
2022/12/27 13:11:07;;;;;;;1.70;1.20;;;6.60;99.90;;;;;;5099861;28;20169;-82
2022/12/27 13:14:10;;;;;;;2.60;1.03;;;6.50;99.90;;;;;;5100084;28;20189;-81
2022/12/27 13:16:58;;;;;;;1.60;1.50;;;6.50;99.90;;;;;;5099367;28;20686;-82
2022/12/27 13:20:11;;;;;;;5.33;1.30;;;6.50;99.90;;;;;;5096889;28;20195;-83
2022/12/27 13:22:37;;;;;;;3.07;1.50;;;;;;;;;;5092091;28;20539;-83
2022/12/27 13:25:16;;;;;;;6.97;3.60;;;6.40;99.90;;;;;;5097840;28;20204;-81
2022/12/27 13:27:42;;;;;;;4.57;2.30;;;;;;;;;;5096170;28;20175;-81
2022/12/27 13:30:32;;;;;;;5.17;2.00;;;6.40;99.90;;;;;;5097153;28;20521;-81
2022/12/27 13:33:16;;;;;;;2.93;1.60;;;6.40;99.90;;;;;;5096127;28;20248;-82
2022/12/27 13:35:53;;;;;;;2.17;1.63;;;6.50;99.90;;;;;;5098275;28;20200;-81
2022/12/27 13:38:38;;;;;;;3.17;2.20;;;6.40;99.90;;;;;;5096600;28;20209;-82
2022/12/27 13:41:15;;;;;;;5.27;1.90;;;6.40;99.90;;;;;;5096938;28;20628;-82
2022/12/27 13:43:53;;;;;;;2.37;1.83;;;6.40;99.90;;;;;;5098317;28;20176;-82
2022/12/27 13:46:40;;;;;;;3.60;2.20;;;6.40;99.90;;;;;;5099560;28;20182;-82
2022/12/27 13:49:39;;;;;;;3.93;1.70;;;6.30;99.90;;;;;;5099390;28;20298;-82
2022/12/27 13:52:39;;;;;;;4.13;1.80;;;6.30;99.90;;;;;;5100008;28;20177;-83
2022/12/27 13:55:33;;;;;;;5.57;1.90;;;6.20;99.90;;;;;;5100109;28;20176;-82
2022/12/27 13:58:17;;;;;;;2.80;1.50;;;6.20;99.90;;;;;;5098671;28;20197;-82
2022/12/27 14:01:20;;;;;;;2.90;1.70;;;6.00;99.90;;;;;;5100064;28;20305;-81
2022/12/27 14:03:58;;;;;;;5.20;2.13;;;6.00;99.90;;;;;;5099387;28;20164;-81
2022/12/27 14:07:10;;;;;;;3.83;1.47;;;6.10;99.90;;;;;;5100736;28;20169;-81
2022/12/27 14:10:02;;;;;;;2.67;1.20;;;6.10;99.90;;;;;;5100936;28;20215;-81
2022/12/27 14:12:49;;;;;;;2.97;1.77;;;6.00;99.90;;;;;;5101387;28;20180;-82
2022/12/27 14:15:18;;;;;;;2.57;1.70;;;6.00;99.90;;;;;;5102710;28;20672;-82
2022/12/27 14:18:14;;;;;;;3.00;2.03;;;6.00;99.90;;;;;;5103960;28;20242;-82
2022/12/27 14:21:09;;;;;;;5.20;2.17;;;6.00;99.90;;;;;;5103843;28;20214;-82
2022/12/27 14:23:45;;;;;;;2.63;1.90;;;6.00;99.90;;;;;;5100233;28;20414;-81
2022/12/27 14:26:35;;;;;;;8.37;3.20;;;5.90;99.90;;;;;;5102925;28;20172;-83
2022/12/27 14:29:04;;;;;;;7.27;3.00;;;5.90;99.90;;;;;;5101241;28;20196;-83
2022/12/27 14:31:49;;;;;;;3.17;2.50;;;5.80;99.90;;;;;;5100185;28;20176;-82
2022/12/27 14:34:15;;;;;;;3.50;2.70;;;;;;;;;;5099781;28;20738;-82
2022/12/27 14:37:09;;;;;;;3.73;2.23;;;5.80;99.90;;;;;;5102618;28;20199;-81
2022/12/27 14:39:53;;;;;;;3.30;1.67;;;5.70;99.90;;;;;;5101513;28;20513;-82
2022/12/27 14:42:42;;;;;;;3.60;2.10;;;5.70;99.90;;;;;;5104224;28;20173;-82
2022/12/27 14:45:49;;;;;;;2.57;1.70;;;5.70;99.90;;;;;;5084795;28;20191;-83
2022/12/27 14:48:56;;;;;;;1.93;1.53;;;5.60;99.90;;;;;;5104544;28;20196;-83
2022/12/27 14:51:37;;;;;;;3.40;2.00;;;5.60;99.90;;;;;;5103942;28;20406;-83
2022/12/27 14:54:39;;;;;;;2.10;1.90;;;5.60;99.90;;;;;;5104418;28;20398;-82
2022/12/27 14:57:10;;;;;;;2.70;1.77;;;5.60;99.90;;;;;;5102811;28;21066;-81
2022/12/27 14:59:49;;;;;;;2.33;1.93;;;5.50;99.90;;;;;;5098512;28;20192;-81
2022/12/27 15:02:42;;;;;;;4.77;2.57;;;5.50;99.90;;;;;;5101718;28;20183;-82
2022/12/27 15:05:29;;;;;;;4.40;2.23;;;5.50;99.90;;;;;;5101905;28;20177;-82
2022/12/27 15:08:19;;;;;;;7.03;3.10;;;5.50;99.90;;;;;;5102068;28;20499;-81
2022/12/27 15:10:58;;;;;;;5.87;3.33;;;5.50;99.90;;;;;;5102344;28;20887;-81
2022/12/27 15:13:41;;;;;;;6.20;4.27;;;5.40;99.90;;;;;;5101480;28;20922;-80
2022/12/27 15:16:37;;;;;;;7.97;4.73;;;5.40;99.90;;;;;;5100201;28;20446;-80
2022/12/27 15:19:48;;;;;;;7.97;5.40;;;5.30;99.90;;;;;;5101270;28;20448;-82
2022/12/27 15:22:40;;;;;;;6.73;4.97;;;5.20;99.90;;;;;;5098052;28;20176;-82
2022/12/27 15:25:30;;;;;;;8.13;5.70;;;5.00;99.90;;;;;;5097312;28;20217;-81
2022/12/27 15:27:56;;;;;;;14.20;7.67;;;5.00;99.90;;;;;;5098493;28;20271;-81
2022/12/27 15:30:43;;;;;;;13.00;7.03;;;4.90;99.90;;;;;;5098220;28;20204;-83
2022/12/27 15:33:24;;;;;;;10.53;6.13;;;4.80;99.90;;;;;;5099154;28;20184;-83
2022/12/27 15:35:55;;;;;;;10.83;5.73;;;4.80;99.90;;;;;;5099496;28;20231;-82
2022/12/27 15:38:49;;;;;;;16.23;6.43;;;4.70;99.90;;;;;;5099209;28;20523;-82
2022/12/27 15:41:14;;;;;;;9.17;5.57;;;4.60;99.90;;;;;;5098995;28;20417;-82
2022/12/27 15:43:40;;;;;;;9.90;5.67;;;;;;;;;;5101922;28;20398;-81
2022/12/27 15:46:37;;;;;;;7.53;5.17;;;4.50;99.90;;;;;;5101739;28;20181;-83
2022/12/27 15:49:21;;;;;;;7.93;4.97;;;4.50;99.90;;;;;;5103041;28;20192;-82
2022/12/27 15:51:53;;;;;;;5.70;4.03;;;4.40;99.90;;;;;;5100326;28;20179;-83
2022/12/27 15:54:44;;;;;;;5.80;3.60;;;4.40;99.90;;;;;;5101007;28;20410;-82
2022/12/27 15:57:15;;;;;;;5.37;3.60;;;4.40;99.90;;;;;;5100098;28;20963;-83
2022/12/27 16:00:25;;;;;;;8.57;5.20;;;4.30;99.90;;;;;;5101606;28;20432;-83
2022/12/27 16:02:54;;;;;;;11.93;6.87;;;4.30;99.90;;;;;;5102424;28;20572;-81
2022/12/27 16:05:20;;;;;;;15.33;8.10;;;4.30;99.90;;;;;;5100166;28;20493;-83
2022/12/27 16:07:58;;;;;;;14.20;7.83;;;4.30;99.90;;;;;;5101452;28;20523;-82
2022/12/27 16:10:29;;;;;;;15.13;8.63;;;4.20;99.90;;;;;;5098569;28;20409;-81
2022/12/27 16:13:00;;;;;;;11.67;7.67;;;4.20;99.90;;;;;;5098160;28;20172;-80
2022/12/27 16:15:46;;;;;;;12.33;7.80;;;4.20;99.90;;;;;;5098568;28;21026;-81
2022/12/27 16:18:17;;;;;;;15.63;8.13;;;4.10;99.90;;;;;;5099823;28;20418;-81
2022/12/27 16:20:59;;;;;;;13.80;8.50;;;4.00;99.90;;;;;;5102904;28;20760;-82
2022/12/27 16:23:30;;;;;;;10.67;6.80;;;4.10;99.90;;;;;;5102171;28;20418;-81
2022/12/27 16:26:16;;;;;;;13.90;7.50;;;3.90;99.90;;;;;;5099046;28;20403;-82
2022/12/27 16:28:50;;;;;;;13.90;8.87;;;3.90;99.90;;;;;;5102221;28;20448;-82
2022/12/27 16:31:20;;;;;;;16.30;9.30;;;3.90;99.90;;;;;;5102232;28;20398;-81
2022/12/27 16:33:47;;;;;;;15.10;8.60;;;3.80;99.90;;;;;;5098460;28;20414;-80
2022/12/27 16:36:33;;;;;;;14.73;8.23;;;3.70;99.90;;;;;;5098936;28;20446;-81
2022/12/27 16:39:23;;;;;;;17.43;9.03;;;3.60;99.90;;;;;;5100532;28;20430;-82
2022/12/27 16:41:51;;;;;;;13.57;7.57;;;3.60;99.90;;;;;;5098976;28;20485;-81
2022/12/27 16:44:23;;;;;;;17.10;9.33;;;3.60;99.90;;;;;;5097990;28;20482;-81
2022/12/27 16:46:58;;;;;;;14.93;8.10;;;3.50;99.90;;;;;;5099012;28;20414;-81
2022/12/27 16:49:54;;;;;;;16.93;11.00;;;3.50;99.90;;;;;;5097570;28;20441;-81
2022/12/27 16:52:46;;;;;;;32.83;18.23;;;3.50;99.90;;;;;;5096315;28;20445;-81
2022/12/27 16:55:20;;;;;;;28.37;17.10;;;3.50;99.90;;;;;;5096568;28;20959;-81
